Time;durP1;ratioP1;P1;durP2;ratioP2;P2;SDS_P1;SDS_P2;PMS_P1;PMS_P2;Temp;Humidity;BMP_temperature;BMP_pressure;BME280_temperature;BME280_humidity;BME280_pressure;Samples;Min_cycle;Max_cycle;Signal;HPM_P1;HPM_P2
2023/08/13 00:00:38;;;;;;;7.13;2.05;;;19.70;83.00;;;;;;5133820;28;20031;-76
2023/08/13 00:03:04;;;;;;;4.60;1.92;;;19.60;83.00;;;;;;5133714;28;20032;-75
2023/08/13 00:05:30;;;;;;;7.55;2.10;;;19.70;83.00;;;;;;5098896;28;20028;-76
2023/08/13 00:07:55;;;;;;;7.63;2.10;;;19.60;82.80;;;;;;5115598;28;20034;-75
2023/08/13 00:10:21;;;;;;;6.40;1.98;;;19.60;82.90;;;;;;5115636;28;20087;-75
2023/08/13 00:12:47;;;;;;;9.65;2.10;;;19.60;83.20;;;;;;5115738;28;20028;-76
2023/08/13 00:15:13;;;;;;;5.60;1.83;;;19.60;83.40;;;;;;5115577;28;20020;-76
2023/08/13 00:17:39;;;;;;;7.00;2.10;;;19.50;83.40;;;;;;5133596;28;20032;-76
2023/08/13 00:20:05;;;;;;;6.07;1.75;;;19.50;83.50;;;;;;5115760;28;20049;-76
2023/08/13 00:22:31;;;;;;;8.48;2.13;;;19.50;83.50;;;;;;5133691;28;20034;-76
2023/08/13 00:24:57;;;;;;;5.13;2.00;;;19.50;83.40;;;;;;5115487;28;20015;-76
2023/08/13 00:27:23;;;;;;;5.90;1.73;;;19.50;83.30;;;;;;5115645;28;20034;-76
2023/08/13 00:29:49;;;;;;;5.30;1.98;;;19.50;83.40;;;;;;5098704;28;20035;-76
2023/08/13 00:32:14;;;;;;;11.82;2.33;;;19.50;83.30;;;;;;5115593;28;20038;-76
2023/08/13 00:34:40;;;;;;;5.93;2.30;;;19.50;83.50;;;;;;5115648;28;20016;-76
2023/08/13 00:37:05;;;;;;;7.55;2.50;;;19.40;83.70;;;;;;5115563;28;20035;-76
2023/08/13 00:39:31;;;;;;;6.18;2.20;;;19.20;83.90;;;;;;5133398;28;20020;-76
2023/08/13 00:41:57;;;;;;;7.97;2.63;;;19.20;84.40;;;;;;5115368;28;20050;-76
2023/08/13 00:44:22;;;;;;;7.18;2.90;;;19.10;84.70;;;;;;5115238;28;20035;-76
2023/08/13 00:46:48;;;;;;;7.97;3.25;;;19.00;85.10;;;;;;5116950;28;20053;-76
2023/08/13 00:49:15;;;;;;;8.50;2.90;;;18.90;85.30;;;;;;5119105;28;20024;-76
2023/08/13 00:51:41;;;;;;;8.38;2.28;;;18.80;85.70;;;;;;5119237;28;20020;-76
2023/08/13 00:54:08;;;;;;;5.80;2.53;;;18.70;86.10;;;;;;5101861;28;20044;-76
2023/08/13 00:56:35;;;;;;;9.05;2.90;;;18.60;86.40;;;;;;5136512;28;20050;-76
2023/08/13 00:59:01;;;;;;;7.53;2.60;;;18.50;86.70;;;;;;5136863;28;20023;-76
2023/08/13 01:01:27;;;;;;;6.38;2.22;;;18.40;87.20;;;;;;5118901;28;20169;-76
2023/08/13 01:03:52;;;;;;;6.80;2.45;;;18.30;87.90;;;;;;5102031;28;20035;-77
2023/08/13 01:06:41;;;;;;;8.13;2.60;;;18.30;87.80;;;;;;5101871;28;20038;-77
2023/08/13 01:09:42;;;;;;;8.50;2.70;;;18.30;87.90;;;;;;5136629;28;20036;-76
2023/08/13 01:12:27;;;;;;;8.10;2.55;;;18.20;88.50;;;;;;5118622;28;20045;-76
2023/08/13 01:15:00;;;;;;;9.02;2.42;;;18.00;89.30;;;;;;5118567;28;20034;-76
2023/08/13 01:17:27;;;;;;;5.53;2.40;;;18.00;89.80;;;;;;5136598;28;20024;-76
2023/08/13 01:19:53;;;;;;;9.27;2.88;;;18.00;89.50;;;;;;5136433;28;20024;-76
2023/08/13 01:22:27;;;;;;;7.68;2.72;;;18.00;89.70;;;;;;5118547;28;20042;-76
2023/08/13 01:24:53;;;;;;;5.65;2.67;;;17.90;89.80;;;;;;5136378;28;20019;-76
2023/08/13 01:27:49;;;;;;;7.43;2.72;;;17.90;90.10;;;;;;5136294;28;20039;-76
2023/08/13 01:30:20;;;;;;;9.85;2.80;;;17.80;90.30;;;;;;5118211;28;20019;-76
2023/08/13 01:32:56;;;;;;;6.13;2.45;;;17.80;90.50;;;;;;5136220;28;20043;-76
2023/08/13 01:35:23;;;;;;;7.40;2.58;;;17.80;90.40;;;;;;5136119;28;20094;-76
2023/08/13 01:37:50;;;;;;;6.15;2.58;;;17.70;90.50;;;;;;5136171;28;20028;-77
2023/08/13 01:40:16;;;;;;;7.45;2.92;;;17.70;90.60;;;;;;5101240;28;20027;-76
2023/08/13 01:42:42;;;;;;;6.68;2.80;;;17.70;90.70;;;;;;5101262;28;20027;-76
2023/08/13 01:45:08;;;;;;;10.13;3.42;;;17.60;90.70;;;;;;5118067;28;20030;-76
2023/08/13 01:47:33;;;;;;;3.15;2.10;;;17.60;90.70;;;;;;5117821;28;20095;-76
2023/08/13 01:49:59;;;;;;;9.52;2.60;;;17.60;90.70;;;;;;5100939;28;20031;-76
2023/08/13 01:52:25;;;;;;;8.77;2.40;;;17.60;90.90;;;;;;5117862;28;20016;-76
2023/08/13 01:54:50;;;;;;;7.28;2.47;;;17.60;90.90;;;;;;5117724;28;20054;-76
2023/08/13 01:57:16;;;;;;;8.68;2.42;;;17.70;90.80;;;;;;5117104;28;20048;-76
2023/08/13 01:59:41;;;;;;;6.20;2.60;;;17.80;91.00;;;;;;5116979;28;20098;-76
2023/08/13 02:02:07;;;;;;;8.27;2.88;;;17.90;90.50;;;;;;5117581;28;20035;-76
2023/08/13 02:04:33;;;;;;;6.85;2.25;;;18.00;90.40;;;;;;5117677;28;20031;-76
2023/08/13 02:06:58;;;;;;;5.70;2.33;;;18.00;90.20;;;;;;5100491;28;20047;-76
2023/08/13 02:09:24;;;;;;;6.70;2.25;;;18.00;90.20;;;;;;5117460;28;20027;-76
2023/08/13 02:11:49;;;;;;;7.88;2.10;;;18.10;90.20;;;;;;5135419;28;20049;-76
2023/08/13 02:14:15;;;;;;;5.82;2.33;;;18.10;90.10;;;;;;5135436;28;20023;-76
2023/08/13 02:16:41;;;;;;;6.78;2.55;;;18.20;90.00;;;;;;5135326;28;20031;-76
2023/08/13 02:19:06;;;;;;;6.95;1.98;;;18.20;90.00;;;;;;5083679;28;20046;-76
2023/08/13 02:21:33;;;;;;;8.00;2.88;;;18.10;89.90;;;;;;5135347;28;20038;-76
2023/08/13 02:23:58;;;;;;;8.27;2.40;;;18.10;89.90;;;;;;5117426;28;20036;-76
2023/08/13 02:26:24;;;;;;;5.07;1.92;;;18.10;89.80;;;;;;5117124;28;20035;-76
2023/08/13 02:28:50;;;;;;;7.20;2.33;;;18.10;90.00;;;;;;5135033;28;20035;-76
2023/08/13 02:31:15;;;;;;;4.30;2.33;;;18.10;90.00;;;;;;5100064;28;20046;-76
2023/08/13 02:33:41;;;;;;;4.85;2.22;;;18.10;90.10;;;;;;5117136;28;20031;-76
2023/08/13 02:36:06;;;;;;;4.53;2.13;;;18.10;90.10;;;;;;5134932;28;20032;-76
2023/08/13 02:38:32;;;;;;;7.30;2.38;;;18.10;90.20;;;;;;5117005;28;20035;-76
2023/08/13 02:40:58;;;;;;;5.97;2.00;;;18.10;90.10;;;;;;5116687;28;20038;-76
2023/08/13 02:43:28;;;;;;;6.13;2.25;;;18.20;90.00;;;;;;5100008;28;20032;-76
2023/08/13 02:45:54;;;;;;;5.90;2.03;;;18.20;90.00;;;;;;5134947;28;20020;-76
2023/08/13 02:48:19;;;;;;;4.90;1.90;;;18.30;90.00;;;;;;5134666;28;20031;-76
2023/08/13 02:50:45;;;;;;;4.80;1.70;;;18.30;90.00;;;;;;5116681;28;20050;-76
2023/08/13 02:53:11;;;;;;;7.53;1.92;;;18.20;89.80;;;;;;5116875;28;20031;-76
2023/08/13 02:55:36;;;;;;;7.60;2.05;;;18.20;89.90;;;;;;5116476;28;20051;-76
2023/08/13 02:58:02;;;;;;;7.28;2.13;;;18.20;90.00;;;;;;5116608;28;20077;-76
2023/08/13 03:00:27;;;;;;;7.03;1.90;;;18.20;89.90;;;;;;5116555;28;20036;-76
2023/08/13 03:02:53;;;;;;;4.80;1.88;;;18.20;90.00;;;;;;5099604;28;20027;-76
2023/08/13 03:05:19;;;;;;;4.63;2.30;;;18.20;90.00;;;;;;5116507;28;20040;-76
2023/08/13 03:07:44;;;;;;;4.57;1.67;;;18.20;90.30;;;;;;5116377;28;20024;-76
2023/08/13 03:10:12;;;;;;;5.78;1.67;;;18.20;89.80;;;;;;5134085;28;20077;-76
2023/08/13 03:12:37;;;;;;;6.93;2.30;;;18.20;89.80;;;;;;5116783;28;20050;-76
2023/08/13 03:15:03;;;;;;;6.78;2.20;;;18.10;89.80;;;;;;5082627;28;20032;-76
2023/08/13 03:17:29;;;;;;;6.40;2.50;;;18.00;90.10;;;;;;5134181;28;20031;-76
2023/08/13 03:19:55;;;;;;;6.63;2.35;;;17.90;90.20;;;;;;5134223;28;20104;-76
2023/08/13 03:22:21;;;;;;;5.55;2.20;;;17.70;90.80;;;;;;5116494;28;20015;-76
2023/08/13 03:24:47;;;;;;;8.80;2.22;;;17.70;90.60;;;;;;5116276;28;20087;-76
2023/08/13 03:27:12;;;;;;;6.20;2.30;;;17.60;90.90;;;;;;5134075;28;20031;-76
2023/08/13 03:29:38;;;;;;;5.70;2.20;;;17.60;91.10;;;;;;5099280;28;20012;-76
2023/08/13 03:32:04;;;;;;;8.15;2.13;;;17.70;91.10;;;;;;5116212;28;20050;-76
2023/08/13 03:34:29;;;;;;;6.97;2.15;;;17.70;90.90;;;;;;5115900;28;20028;-76
2023/08/13 03:36:55;;;;;;;7.75;2.30;;;17.70;90.90;;;;;;5134168;28;20035;-76
2023/08/13 03:39:21;;;;;;;5.38;1.90;;;17.70;90.80;;;;;;5115952;28;20057;-76
2023/08/13 03:41:46;;;;;;;13.02;2.05;;;17.80;90.90;;;;;;5116151;28;20089;-76
2023/08/13 03:44:12;;;;;;;9.90;2.20;;;17.80;90.80;;;;;;5099010;28;20054;-76
2023/08/13 03:46:37;;;;;;;5.93;1.88;;;17.90;90.70;;;;;;5134090;28;20019;-76
2023/08/13 03:49:03;;;;;;;6.85;2.25;;;18.00;90.60;;;;;;5115846;28;20501;-76
2023/08/13 03:51:29;;;;;;;7.57;2.45;;;18.00;90.50;;;;;;5133899;28;20024;-76
2023/08/13 03:53:54;;;;;;;5.45;2.42;;;18.00;90.50;;;;;;5115993;28;20046;-76
2023/08/13 03:56:20;;;;;;;6.65;2.47;;;17.90;90.50;;;;;;5115666;28;20043;-78
2023/08/13 03:58:45;;;;;;;4.38;1.92;;;17.90;90.50;;;;;;5099338;28;20027;-77
2023/08/13 04:01:11;;;;;;;6.55;2.33;;;17.90;90.50;;;;;;5082292;28;20057;-77
2023/08/13 04:03:37;;;;;;;6.10;2.75;;;17.80;90.50;;;;;;5133905;28;20035;-77
2023/08/13 04:06:02;;;;;;;7.38;2.20;;;17.70;90.70;;;;;;5133771;28;20035;-77
2023/08/13 04:08:28;;;;;;;3.97;1.90;;;17.60;90.90;;;;;;5115691;28;20020;-77
2023/08/13 04:10:54;;;;;;;5.28;2.10;;;17.60;90.90;;;;;;5133897;28;20035;-76
2023/08/13 04:13:20;;;;;;;7.28;2.30;;;17.70;90.90;;;;;;5098791;28;20032;-77
2023/08/13 04:15:45;;;;;;;6.35;2.22;;;17.70;90.90;;;;;;5081931;28;20026;-77
2023/08/13 04:18:11;;;;;;;5.97;2.47;;;17.80;90.90;;;;;;5115742;28;20077;-77
2023/08/13 04:20:39;;;;;;;7.45;2.55;;;17.80;90.80;;;;;;5115670;28;20031;-77
2023/08/13 04:23:05;;;;;;;10.13;2.67;;;17.80;90.60;;;;;;5119277;28;20058;-76
2023/08/13 04:25:31;;;;;;;5.28;2.17;;;17.80;90.60;;;;;;5085934;28;20020;-77
2023/08/13 04:27:57;;;;;;;4.38;2.20;;;17.70;90.70;;;;;;5102627;28;20031;-76
2023/08/13 04:30:22;;;;;;;8.98;2.20;;;17.70;90.80;;;;;;5102473;28;20119;-76
2023/08/13 04:32:55;;;;;;;7.10;2.45;;;17.60;90.90;;;;;;5137439;28;20073;-77
2023/08/13 04:35:22;;;;;;;5.28;2.20;;;17.60;90.90;;;;;;5137285;28;20023;-77
2023/08/13 04:37:51;;;;;;;7.20;2.30;;;17.60;91.00;;;;;;5137347;28;20047;-77
2023/08/13 04:40:17;;;;;;;5.43;2.40;;;17.60;91.00;;;;;;5137259;28;20032;-77
2023/08/13 04:42:43;;;;;;;3.65;2.10;;;17.60;91.00;;;;;;5137218;28;20035;-77
2023/08/13 04:45:09;;;;;;;6.70;2.15;;;17.50;91.00;;;;;;5119130;28;20031;-77
2023/08/13 04:47:35;;;;;;;6.40;2.28;;;17.50;91.20;;;;;;5119009;28;20035;-77
2023/08/13 04:50:01;;;;;;;4.95;2.30;;;17.50;91.20;;;;;;5119092;28;20016;-77
2023/08/13 04:52:27;;;;;;;6.63;2.45;;;17.40;91.20;;;;;;5137100;28;20020;-76
2023/08/13 04:54:52;;;;;;;6.75;2.47;;;17.30;91.50;;;;;;5137008;28;20094;-76
2023/08/13 04:57:18;;;;;;;8.57;2.83;;;17.30;91.60;;;;;;5101594;28;20483;-77
2023/08/13 04:59:43;;;;;;;5.45;2.00;;;17.30;91.70;;;;;;5118920;28;20028;-77
2023/08/13 05:02:09;;;;;;;6.30;2.03;;;17.30;91.80;;;;;;5085149;28;20498;-77
2023/08/13 05:04:35;;;;;;;5.80;2.58;;;17.20;91.90;;;;;;5136865;28;20030;-76
2023/08/13 05:07:00;;;;;;;6.38;2.53;;;17.30;92.00;;;;;;5118712;28;20028;-77
2023/08/13 05:09:26;;;;;;;5.45;2.45;;;17.40;92.00;;;;;;5118765;28;20030;-77
2023/08/13 05:11:51;;;;;;;5.32;2.22;;;17.40;92.10;;;;;;5118530;28;20481;-76
2023/08/13 05:14:17;;;;;;;7.47;2.63;;;17.40;92.20;;;;;;5136550;28;20087;-76
2023/08/13 05:16:43;;;;;;;4.75;2.25;;;17.40;92.30;;;;;;5118511;28;20106;-76
2023/08/13 05:19:08;;;;;;;8.48;2.72;;;17.40;92.30;;;;;;5118643;28;20101;-76
2023/08/13 05:21:34;;;;;;;5.90;2.35;;;17.50;92.30;;;;;;5118434;28;20026;-76
2023/08/13 05:24:00;;;;;;;8.15;2.60;;;17.50;92.30;;;;;;5136503;28;20462;-76
2023/08/13 05:26:25;;;;;;;6.13;2.80;;;17.50;92.50;;;;;;5136377;28;20039;-76
2023/08/13 05:28:51;;;;;;;6.35;2.50;;;17.50;92.50;;;;;;5136254;28;20031;-75
2023/08/13 05:31:17;;;;;;;5.80;2.33;;;17.50;92.80;;;;;;5136340;28;20020;-76
2023/08/13 05:33:42;;;;;;;8.55;2.90;;;17.50;92.90;;;;;;5117964;28;20031;-76
2023/08/13 05:36:08;;;;;;;9.60;2.90;;;17.50;92.90;;;;;;5084487;28;20027;-76
2023/08/13 05:38:34;;;;;;;5.95;2.60;;;17.50;92.90;;;;;;5136151;28;20027;-75
2023/08/13 05:40:59;;;;;;;8.85;3.10;;;17.50;92.90;;;;;;5101400;28;20028;-76
2023/08/13 05:43:25;;;;;;;8.25;2.72;;;17.50;92.90;;;;;;5136065;28;20035;-75
2023/08/13 05:45:51;;;;;;;7.65;2.70;;;17.50;92.90;;;;;;5101004;28;20038;-76
2023/08/13 05:48:16;;;;;;;5.97;3.00;;;17.50;92.90;;;;;;5084280;28;20054;-76
2023/08/13 05:50:43;;;;;;;8.27;2.65;;;17.50;92.90;;;;;;5135884;28;20115;-76
2023/08/13 05:53:09;;;;;;;6.65;2.85;;;17.60;93.00;;;;;;5118007;28;20023;-76
2023/08/13 05:55:34;;;;;;;8.95;3.10;;;17.60;93.00;;;;;;5117661;28;20436;-75
2023/08/13 05:58:00;;;;;;;9.52;3.15;;;17.60;93.30;;;;;;5100649;28;20071;-77
2023/08/13 06:00:25;;;;;;;7.00;3.03;;;17.60;93.00;;;;;;5117719;28;20028;-76
2023/08/13 06:02:51;;;;;;;6.20;3.15;;;17.60;93.10;;;;;;5117617;28;20024;-77
2023/08/13 06:05:17;;;;;;;7.95;3.13;;;17.70;93.30;;;;;;5135572;28;20062;-76
2023/08/13 06:07:42;;;;;;;8.77;3.40;;;17.70;93.40;;;;;;5117338;28;20053;-77
2023/08/13 06:10:08;;;;;;;5.38;2.88;;;17.70;93.20;;;;;;5100560;28;20084;-77
2023/08/13 06:12:35;;;;;;;5.95;2.90;;;17.70;93.10;;;;;;5117189;28;20034;-76
2023/08/13 06:15:00;;;;;;;7.80;3.03;;;17.80;93.20;;;;;;5135387;28;20043;-76
2023/08/13 06:17:26;;;;;;;9.32;3.13;;;17.80;93.20;;;;;;5100428;28;20031;-77
2023/08/13 06:19:52;;;;;;;12.07;4.15;;;17.80;93.20;;;;;;5100398;28;20028;-76
2023/08/13 06:22:18;;;;;;;6.72;3.05;;;17.90;93.20;;;;;;5135289;28;20030;-77
2023/08/13 06:24:43;;;;;;;8.48;3.13;;;18.00;93.40;;;;;;5117262;28;20026;-78
2023/08/13 06:27:09;;;;;;;6.80;3.13;;;18.00;93.30;;;;;;5135077;28;20019;-77
2023/08/13 06:29:35;;;;;;;8.23;3.08;;;18.00;93.40;;;;;;5117110;28;20011;-77
2023/08/13 06:32:00;;;;;;;10.35;3.67;;;18.10;93.30;;;;;;5100132;28;20028;-78
2023/08/13 06:34:26;;;;;;;9.27;3.42;;;18.20;93.30;;;;;;5099960;28;20020;-77
2023/08/13 06:36:53;;;;;;;7.90;3.80;;;18.20;93.30;;;;;;5135122;28;20048;-77
2023/08/13 06:39:19;;;;;;;9.13;4.10;;;18.20;93.30;;;;;;5117012;28;20023;-77
2023/08/13 06:41:45;;;;;;;7.95;3.40;;;18.20;93.20;;;;;;5134835;28;20019;-77
2023/08/13 06:44:19;;;;;;;10.57;3.58;;;18.30;93.50;;;;;;5116370;28;20024;-77
2023/08/13 06:46:46;;;;;;;10.48;3.75;;;18.40;93.30;;;;;;5134969;28;20027;-77
2023/08/13 06:49:12;;;;;;;12.05;3.97;;;18.40;93.60;;;;;;5116896;28;20035;-77
2023/08/13 06:51:38;;;;;;;10.18;3.88;;;18.50;93.60;;;;;;5099683;28;20046;-77
2023/08/13 06:54:04;;;;;;;9.23;3.63;;;18.60;93.50;;;;;;5134691;28;20019;-76
2023/08/13 06:56:30;;;;;;;7.47;3.30;;;18.70;93.60;;;;;;5099440;28;20437;-76
2023/08/13 06:58:56;;;;;;;8.95;3.92;;;18.70;93.10;;;;;;5134669;28;20065;-76
2023/08/13 07:01:22;;;;;;;11.10;3.30;;;18.80;93.10;;;;;;5116676;28;20032;-76
2023/08/13 07:03:48;;;;;;;8.90;3.55;;;18.70;93.00;;;;;;5134508;28;20044;-76
2023/08/13 07:06:14;;;;;;;9.02;3.35;;;18.80;93.10;;;;;;5099795;28;20051;-76
2023/08/13 07:08:39;;;;;;;9.02;3.25;;;18.80;93.10;;;;;;5134324;28;20055;-77
2023/08/13 07:11:05;;;;;;;6.47;3.10;;;18.80;93.00;;;;;;5082727;28;20028;-75
2023/08/13 07:13:31;;;;;;;6.72;3.53;;;18.80;92.90;;;;;;5134339;28;20028;-76
2023/08/13 07:15:56;;;;;;;10.40;3.40;;;18.90;93.10;;;;;;5134275;28;20023;-75
2023/08/13 07:18:22;;;;;;;7.78;2.95;;;18.90;93.20;;;;;;5134365;28;20027;-75
2023/08/13 07:20:48;;;;;;;8.30;3.13;;;18.90;93.10;;;;;;5116217;28;20035;-75
2023/08/13 07:23:13;;;;;;;11.30;3.90;;;19.00;93.00;;;;;;5134095;28;20048;-76
2023/08/13 07:25:39;;;;;;;6.28;2.97;;;19.00;93.10;;;;;;5099276;28;20042;-75
2023/08/13 07:28:06;;;;;;;12.30;3.50;;;19.00;93.10;;;;;;5116224;28;20032;-75
2023/08/13 07:30:32;;;;;;;5.43;3.08;;;19.10;93.20;;;;;;5116076;28;20012;-75
2023/08/13 07:32:57;;;;;;;7.57;3.03;;;19.20;93.40;;;;;;5134089;28;20054;-75
2023/08/13 07:35:24;;;;;;;7.53;3.00;;;19.20;93.20;;;;;;5099269;28;20020;-75
2023/08/13 07:37:50;;;;;;;7.18;3.30;;;19.30;93.10;;;;;;5115943;28;20035;-75
2023/08/13 07:40:16;;;;;;;9.52;3.15;;;19.30;93.10;;;;;;5099052;28;20091;-75
2023/08/13 07:42:42;;;;;;;9.10;3.17;;;19.40;93.20;;;;;;5133930;28;20019;-74
2023/08/13 07:45:08;;;;;;;11.77;2.83;;;19.50;93.30;;;;;;5134085;28;20012;-75
2023/08/13 07:47:36;;;;;;;8.70;3.17;;;19.50;92.90;;;;;;5133971;28;20026;-75
2023/08/13 07:50:04;;;;;;;8.43;2.83;;;19.60;92.70;;;;;;5133878;28;20020;-75
2023/08/13 07:52:30;;;;;;;9.07;3.10;;;19.70;92.90;;;;;;5099135;28;20027;-75
2023/08/13 07:54:56;;;;;;;6.40;2.47;;;19.80;92.90;;;;;;5133878;28;20020;-75
2023/08/13 07:57:22;;;;;;;9.07;3.03;;;19.80;92.70;;;;;;5118342;28;20142;-75
2023/08/13 07:59:47;;;;;;;8.15;2.92;;;19.80;93.00;;;;;;5120268;28;20020;-76
2023/08/13 08:02:13;;;;;;;10.05;3.78;;;19.90;92.90;;;;;;5103046;28;20027;-76
2023/08/13 08:04:39;;;;;;;10.07;2.90;;;20.00;92.80;;;;;;5138041;28;20027;-76
2023/08/13 08:07:04;;;;;;;7.15;2.28;;;20.00;92.70;;;;;;5137872;28;20016;-76
2023/08/13 08:09:30;;;;;;;7.32;2.33;;;20.10;92.10;;;;;;5119979;28;20028;-76
2023/08/13 08:11:56;;;;;;;7.88;2.22;;;20.10;92.10;;;;;;5119776;28;20091;-76
2023/08/13 08:14:22;;;;;;;6.35;2.05;;;20.20;92.10;;;;;;5137760;28;20050;-76
2023/08/13 08:16:47;;;;;;;6.55;2.28;;;20.20;92.00;;;;;;5119908;28;20035;-76
2023/08/13 08:19:13;;;;;;;11.57;2.13;;;20.30;92.30;;;;;;5119795;28;20038;-76
2023/08/13 08:21:39;;;;;;;9.18;2.47;;;20.30;92.50;;;;;;5137762;28;20071;-76
2023/08/13 08:24:05;;;;;;;9.45;2.10;;;20.40;92.50;;;;;;5119695;28;20031;-76
2023/08/13 08:26:31;;;;;;;11.50;2.25;;;20.50;91.50;;;;;;5102608;28;20053;-76
2023/08/13 08:28:57;;;;;;;7.15;2.00;;;20.50;92.00;;;;;;5137444;28;20030;-76
2023/08/13 08:31:23;;;;;;;6.80;1.90;;;20.60;91.80;;;;;;5137382;28;20039;-76
2023/08/13 08:33:49;;;;;;;7.85;2.15;;;20.70;91.80;;;;;;5102394;28;20024;-76
2023/08/13 08:36:15;;;;;;;9.18;1.88;;;20.70;91.90;;;;;;5137342;28;20027;-76
2023/08/13 08:38:41;;;;;;;8.45;2.08;;;20.80;91.50;;;;;;5119387;28;20031;-76
2023/08/13 08:41:09;;;;;;;6.90;1.80;;;20.80;91.10;;;;;;5085664;28;20020;-76
2023/08/13 08:43:38;;;;;;;8.02;2.00;;;20.70;90.80;;;;;;5137200;28;20071;-75
2023/08/13 08:46:06;;;;;;;8.55;2.00;;;20.80;90.60;;;;;;5119155;28;20032;-76
2023/08/13 08:48:33;;;;;;;9.07;2.10;;;20.90;90.40;;;;;;5102376;28;20031;-76
2023/08/13 08:50:59;;;;;;;9.32;2.25;;;20.80;90.40;;;;;;5118958;28;20024;-76
2023/08/13 08:53:26;;;;;;;4.07;1.38;;;20.80;90.60;;;;;;5119105;28;20035;-76
2023/08/13 08:55:53;;;;;;;6.63;1.60;;;20.90;90.70;;;;;;5118925;28;20011;-76
2023/08/13 08:58:18;;;;;;;9.18;2.10;;;20.90;90.60;;;;;;5136935;28;20048;-76
2023/08/13 09:00:44;;;;;;;7.18;1.75;;;20.90;90.60;;;;;;5118965;28;20398;-76
2023/08/13 09:03:10;;;;;;;6.65;1.88;;;20.90;90.00;;;;;;5101776;28;20035;-76
2023/08/13 09:05:39;;;;;;;8.55;1.95;;;20.90;90.10;;;;;;5136792;28;20038;-76
2023/08/13 09:08:14;;;;;;;6.70;2.00;;;21.00;90.60;;;;;;5118224;28;20064;-76
2023/08/13 09:10:43;;;;;;;7.90;1.95;;;21.00;90.10;;;;;;5120057;28;20028;-76
2023/08/13 09:13:09;;;;;;;8.18;1.95;;;21.10;90.20;;;;;;5118603;28;20027;-76
2023/08/13 09:15:41;;;;;;;9.68;2.50;;;21.10;90.20;;;;;;5118733;28;20042;-76
2023/08/13 09:18:07;;;;;;;6.57;1.70;;;21.20;90.30;;;;;;5118512;28;20028;-76
2023/08/13 09:20:32;;;;;;;7.90;2.00;;;21.20;90.10;;;;;;5136675;28;20034;-76
2023/08/13 09:22:59;;;;;;;9.32;1.80;;;21.20;89.90;;;;;;5101630;28;20050;-75
2023/08/13 09:25:25;;;;;;;7.05;2.03;;;21.30;90.10;;;;;;5118491;28;20032;-76
2023/08/13 09:27:52;;;;;;;7.55;2.22;;;21.40;90.00;;;;;;5118161;28;20028;-76
2023/08/13 09:30:21;;;;;;;6.93;2.00;;;21.40;88.10;;;;;;5101399;28;20023;-76
2023/08/13 09:32:47;;;;;;;5.65;1.73;;;21.60;89.20;;;;;;5136274;28;20083;-76
2023/08/13 09:35:12;;;;;;;5.50;2.10;;;21.60;88.00;;;;;;5136184;28;20024;-76
2023/08/13 09:37:38;;;;;;;7.15;1.83;;;21.60;87.60;;;;;;5118102;28;20032;-76
2023/08/13 09:40:05;;;;;;;5.70;1.70;;;21.60;86.60;;;;;;5136145;28;20037;-76
2023/08/13 09:42:33;;;;;;;5.65;1.83;;;21.70;86.60;;;;;;5136140;28;20030;-77
2023/08/13 09:45:03;;;;;;;6.10;2.42;;;21.80;86.00;;;;;;5135982;28;20026;-77
2023/08/13 09:47:32;;;;;;;6.50;1.70;;;21.80;85.10;;;;;;5136087;28;20034;-76
2023/08/13 09:50:01;;;;;;;6.28;2.00;;;21.90;85.50;;;;;;5135962;28;20020;-76
2023/08/13 09:52:27;;;;;;;6.80;1.67;;;21.90;85.30;;;;;;5117847;28;20118;-77
2023/08/13 09:55:10;;;;;;;6.70;2.10;;;22.00;85.00;;;;;;5117963;28;20023;-76
2023/08/13 09:57:37;;;;;;;;;;;22.10;84.20;;;;;;5136018;28;20054;-76
2023/08/13 10:00:03;;;;;;;8.27;1.92;;;22.10;84.80;;;;;;5117792;28;19904;-76
2023/08/13 10:02:29;;;;;;;8.32;1.95;;;22.10;84.60;;;;;;5117782;28;20031;-77
2023/08/13 10:04:57;;;;;;;6.85;1.95;;;22.20;84.90;;;;;;5117583;28;20031;-77
2023/08/13 10:07:23;;;;;;;6.28;1.90;;;22.20;84.30;;;;;;5135497;28;20083;-76
2023/08/13 10:09:50;;;;;;;7.07;1.80;;;22.30;85.10;;;;;;5135584;28;20024;-76
2023/08/13 10:12:17;;;;;;;8.20;2.10;;;22.50;84.60;;;;;;5135536;28;20030;-76
2023/08/13 10:14:42;;;;;;;6.28;1.70;;;22.60;83.20;;;;;;5117481;28;20024;-76
2023/08/13 10:17:08;;;;;;;6.65;2.17;;;22.60;81.10;;;;;;5135392;28;20050;-76
2023/08/13 10:19:39;;;;;;;6.15;1.85;;;22.70;82.50;;;;;;5134361;28;20038;-76
2023/08/13 10:22:07;;;;;;;5.28;1.73;;;22.70;81.00;;;;;;5117353;28;20024;-76
2023/08/13 10:24:33;;;;;;;6.03;1.90;;;22.70;80.90;;;;;;5135236;28;20031;-75
2023/08/13 10:26:59;;;;;;;4.13;1.60;;;22.70;80.70;;;;;;5117164;28;20046;-76
2023/08/13 10:29:40;;;;;;;5.43;1.67;;;22.80;81.30;;;;;;5135199;28;20031;-76
2023/08/13 10:32:16;;;;;;;6.15;1.92;;;22.90;81.20;;;;;;5117196;28;20442;-76
2023/08/13 10:34:54;;;;;;;4.05;1.77;;;22.80;80.10;;;;;;5100014;28;20023;-76
2023/08/13 10:37:22;;;;;;;7.22;1.90;;;22.80;80.00;;;;;;5118239;28;20073;-76
2023/08/13 10:40:08;;;;;;;5.82;2.00;;;22.80;79.90;;;;;;5116960;28;20011;-77
2023/08/13 10:42:36;;;;;;;8.32;2.17;;;22.80;81.70;;;;;;5134949;28;20043;-76
2023/08/13 10:45:05;;;;;;;9.65;2.30;;;22.80;81.20;;;;;;5116754;28;20439;-76
2023/08/13 10:47:39;;;;;;;4.90;1.65;;;22.80;81.70;;;;;;5116921;28;20032;-77
2023/08/13 10:50:33;;;;;;;4.22;1.60;;;22.80;81.60;;;;;;5116711;28;20015;-77
2023/08/13 10:53:06;;;;;;;5.43;1.92;;;22.80;80.80;;;;;;5134725;28;20023;-77
2023/08/13 10:55:38;;;;;;;5.88;1.88;;;22.70;80.50;;;;;;5099810;28;20031;-77
2023/08/13 10:58:04;;;;;;;7.65;2.33;;;22.70;81.10;;;;;;5134255;28;20048;-76
2023/08/13 11:00:30;;;;;;;3.63;1.70;;;22.70;80.40;;;;;;5099551;28;20036;-77
2023/08/13 11:03:19;;;;;;;4.05;1.73;;;22.70;81.60;;;;;;5116640;28;20039;-77
2023/08/13 11:05:48;;;;;;;7.50;1.73;;;22.70;81.80;;;;;;5116512;28;20019;-75
2023/08/13 11:08:18;;;;;;;4.53;1.60;;;22.70;80.00;;;;;;5134306;28;20051;-77
2023/08/13 11:10:46;;;;;;;8.05;2.28;;;22.70;81.40;;;;;;5083236;28;20020;-77
2023/08/13 11:13:13;;;;;;;6.07;2.05;;;22.90;80.70;;;;;;5116333;28;20090;-76
2023/08/13 11:15:40;;;;;;;6.43;1.80;;;23.00;79.70;;;;;;5134385;28;20030;-75
2023/08/13 11:18:06;;;;;;;9.60;2.00;;;23.10;78.00;;;;;;5134278;28;20075;-75
2023/08/13 11:20:31;;;;;;;4.70;1.38;;;23.30;80.30;;;;;;5116426;28;20423;-75
2023/08/13 11:22:57;;;;;;;4.75;1.63;;;23.40;80.00;;;;;;5116366;28;20023;-77
2023/08/13 11:25:26;;;;;;;8.45;2.28;;;23.50;79.60;;;;;;5116232;28;20030;-77
2023/08/13 11:27:51;;;;;;;6.55;2.13;;;23.70;79.00;;;;;;5134084;28;20026;-75
2023/08/13 11:30:17;;;;;;;3.85;1.60;;;23.70;77.80;;;;;;5133879;28;20032;-74
2023/08/13 11:32:44;;;;;;;4.05;1.75;;;23.60;76.00;;;;;;5116193;28;20050;-75
2023/08/13 11:35:10;;;;;;;5.53;1.70;;;23.60;76.10;;;;;;5133986;28;20071;-75
2023/08/13 11:37:39;;;;;;;5.40;2.10;;;23.70;77.10;;;;;;5134015;28;20045;-76
2023/08/13 11:40:09;;;;;;;5.00;1.58;;;23.70;75.90;;;;;;5133916;28;20058;-74
2023/08/13 11:42:35;;;;;;;5.22;2.00;;;23.80;76.60;;;;;;5116025;28;20016;-75
2023/08/13 11:45:10;;;;;;;5.88;1.65;;;23.90;78.20;;;;;;5133876;28;20024;-75
2023/08/13 11:47:36;;;;;;;6.30;1.70;;;24.10;75.20;;;;;;5115938;28;20034;-74
2023/08/13 11:50:02;;;;;;;6.00;1.50;;;24.00;74.80;;;;;;5115944;28;20024;-75
2023/08/13 11:52:28;;;;;;;3.88;1.52;;;24.10;76.90;;;;;;5099064;28;20020;-76
2023/08/13 11:54:56;;;;;;;5.07;1.85;;;24.30;75.90;;;;;;5115982;28;20047;-75
2023/08/13 11:57:22;;;;;;;6.20;1.75;;;24.40;76.70;;;;;;5115701;28;20015;-76
2023/08/13 11:59:51;;;;;;;4.57;1.70;;;24.30;75.20;;;;;;5133554;28;20556;-76
2023/08/13 12:02:17;;;;;;;6.22;1.80;;;24.20;74.60;;;;;;5133851;28;20032;-76
2023/08/13 12:04:47;;;;;;;4.45;1.85;;;24.10;75.20;;;;;;5133908;28;20034;-76
2023/08/13 12:07:13;;;;;;;4.53;1.95;;;24.10;76.40;;;;;;5115879;28;20091;-76
2023/08/13 12:09:39;;;;;;;3.97;1.85;;;24.20;76.60;;;;;;5115624;28;20027;-76
2023/08/13 12:12:05;;;;;;;6.30;1.83;;;24.20;75.80;;;;;;5115727;28;20127;-77
2023/08/13 12:14:30;;;;;;;5.10;1.98;;;24.10;75.10;;;;;;5098818;28;20027;-76
2023/08/13 12:16:56;;;;;;;4.43;1.85;;;24.00;74.60;;;;;;5082165;28;20036;-77
2023/08/13 12:19:22;;;;;;;6.47;1.90;;;24.10;76.30;;;;;;5098984;28;20032;-76
2023/08/13 12:21:47;;;;;;;5.75;1.70;;;24.20;74.60;;;;;;5115804;28;20020;-77
2023/08/13 12:24:13;;;;;;;4.40;1.95;;;24.30;74.20;;;;;;5115740;28;20513;-77
2023/08/13 12:26:38;;;;;;;5.18;1.92;;;24.30;73.40;;;;;;5098732;28;20050;-77
2023/08/13 12:29:04;;;;;;;5.72;1.60;;;24.30;73.60;;;;;;5115687;28;20479;-77
2023/08/13 12:31:31;;;;;;;6.72;1.90;;;24.20;73.10;;;;;;5115484;28;20039;-77
2023/08/13 12:33:57;;;;;;;5.50;1.50;;;24.10;74.50;;;;;;5115388;28;20020;-77
2023/08/13 12:36:22;;;;;;;3.38;1.70;;;23.90;73.50;;;;;;5115411;28;20023;-77
2023/08/13 12:38:48;;;;;;;6.80;2.10;;;23.90;74.10;;;;;;5115498;28;20031;-77
2023/08/13 12:41:14;;;;;;;6.43;2.00;;;23.90;74.30;;;;;;5133493;28;20501;-77
2023/08/13 12:43:40;;;;;;;6.78;1.90;;;23.90;74.50;;;;;;5136324;28;20027;-76